createdAt,value
2022-12-27T00:05:12.641Z,-7.16
2022-12-27T00:10:37.712Z,-7.04
2022-12-27T00:16:08.232Z,-7.06
2022-12-27T00:21:30.302Z,-7.11
2022-12-27T00:26:52.191Z,-7.10
2022-12-27T00:32:14.000Z,-7.10
2022-12-27T00:37:36.010Z,-7.11
2022-12-27T00:42:57.905Z,-7.07
2022-12-27T00:48:21.237Z,-7.20
2022-12-27T00:53:44.662Z,-7.07
2022-12-27T00:59:06.723Z,-7.14
2022-12-27T01:04:28.493Z,-7.33
2022-12-27T01:09:50.703Z,-7.31
2022-12-27T01:15:13.123Z,-7.50
2022-12-27T01:20:35.161Z,-7.46
2022-12-27T01:26:06.540Z,-7.28
2022-12-27T01:31:29.054Z,-7.33
2022-12-27T01:36:51.321Z,-7.24
2022-12-27T01:42:37.055Z,-7.30
2022-12-27T01:48:07.455Z,-7.27
2022-12-27T01:53:34.373Z,-7.31
2022-12-27T01:59:09.862Z,-7.45
2022-12-27T02:04:33.455Z,-7.53
2022-12-27T02:09:59.345Z,-7.49
2022-12-27T02:15:21.826Z,-7.55
2022-12-27T02:21:19.216Z,-7.58
2022-12-27T02:26:50.182Z,-7.50
2022-12-27T02:32:30.312Z,-7.55
2022-12-27T02:38:08.132Z,-7.64
2022-12-27T02:43:49.095Z,-7.65
2022-12-27T02:49:52.697Z,-7.65
2022-12-27T02:55:33.428Z,-7.60
2022-12-27T03:01:28.041Z,-7.57
2022-12-27T03:07:19.076Z,-7.58
2022-12-27T03:13:07.533Z,-7.60
2022-12-27T03:18:37.205Z,-7.57
2022-12-27T03:24:18.913Z,-7.66
2022-12-27T03:29:59.683Z,-7.65
2022-12-27T03:35:24.143Z,-7.64
2022-12-27T03:41:24.230Z,-7.62
2022-12-27T03:47:18.463Z,-7.68
2022-12-27T03:52:44.680Z,-7.65
2022-12-27T03:58:07.183Z,-7.91
2022-12-27T04:03:29.630Z,-7.89
2022-12-27T04:09:10.573Z,-8.01
2022-12-27T04:14:50.731Z,-7.99
2022-12-27T04:20:31.717Z,-7.86
2022-12-27T04:26:12.223Z,-8.07
2022-12-27T04:31:54.953Z,-7.91
2022-12-27T04:37:19.863Z,-7.94
2022-12-27T04:43:01.673Z,-7.73
2022-12-27T04:48:42.403Z,-7.76
2022-12-27T04:54:22.760Z,-7.76
2022-12-27T05:00:02.980Z,-7.78
2022-12-27T05:05:26.648Z,-7.72
2022-12-27T05:11:07.309Z,-7.79
2022-12-27T05:16:40.584Z,-7.80
2022-12-27T05:22:20.930Z,-7.74
2022-12-27T05:27:42.994Z,-7.76
2022-12-27T05:33:05.214Z,-7.86
2022-12-27T05:38:27.164Z,-7.96
2022-12-27T05:43:52.641Z,-7.95
2022-12-27T05:49:14.726Z,-8.04
2022-12-27T05:54:36.663Z,-8.01
2022-12-27T05:59:59.172Z,-7.99
2022-12-27T06:05:21.345Z,-8.13
2022-12-27T06:10:43.858Z,-7.97
2022-12-27T06:16:08.224Z,-8.14
2022-12-27T06:21:30.771Z,-7.95
2022-12-27T06:26:53.087Z,-8.08
2022-12-27T06:32:18.284Z,-8.05
2022-12-27T06:37:40.455Z,-8.07
2022-12-27T06:43:02.605Z,-7.97
2022-12-27T06:48:25.465Z,-8.03
2022-12-27T06:53:48.965Z,-7.91
2022-12-27T06:59:11.503Z,-7.88
2022-12-27T07:04:33.732Z,-7.88
2022-12-27T07:09:55.911Z,-7.98
2022-12-27T07:15:18.271Z,-7.83
2022-12-27T07:20:41.653Z,-7.83
2022-12-27T07:26:12.214Z,-7.79
2022-12-27T07:31:34.833Z,-7.80
2022-12-27T07:36:57.003Z,-7.88
2022-12-27T07:42:19.225Z,-7.77
2022-12-27T07:47:41.841Z,-7.71
2022-12-27T07:53:04.064Z,-7.68
2022-12-27T07:58:26.499Z,-7.63
2022-12-27T08:03:48.677Z,-7.60
2022-12-27T08:09:16.331Z,-7.54
2022-12-27T08:14:38.175Z,-7.54
2022-12-27T08:20:00.092Z,-7.50
2022-12-27T08:25:22.481Z,-7.57
2022-12-27T08:30:46.356Z,-7.41
2022-12-27T08:41:55.039Z,-7.40
2022-12-27T08:47:17.325Z,-7.37
2022-12-27T08:52:39.707Z,-7.55
2022-12-27T08:58:04.003Z,-7.27
2022-12-27T09:03:26.193Z,-7.33
2022-12-27T09:08:50.240Z,-7.18
2022-12-27T09:14:12.224Z,-7.34
2022-12-27T09:19:34.002Z,-7.22
2022-12-27T09:24:56.200Z,-7.21
2022-12-27T09:30:19.173Z,-7.03
2022-12-27T09:35:41.144Z,-7.20
2022-12-27T09:41:06.832Z,-7.13
2022-12-27T09:46:47.970Z,-6.93
2022-12-27T09:52:26.900Z,-6.98
2022-12-27T09:57:49.251Z,-7.04
2022-12-27T10:03:12.403Z,-7.06
2022-12-27T10:09:11.613Z,-6.94
2022-12-27T10:15:11.883Z,-6.97
2022-12-27T10:21:09.165Z,-7.00
2022-12-27T10:26:31.095Z,-6.99
2022-12-27T10:31:54.068Z,-7.03
2022-12-27T10:37:16.872Z,-6.97
2022-12-27T10:42:52.768Z,-7.13
2022-12-27T10:48:21.470Z,-6.94
2022-12-27T10:53:47.327Z,-6.91
2022-12-27T10:59:28.775Z,-7.06
2022-12-27T11:05:01.693Z,-6.91
2022-12-27T11:10:27.707Z,-7.01
2022-12-27T11:15:59.075Z,-7.10
2022-12-27T11:21:27.468Z,-7.01
2022-12-27T11:26:58.717Z,-6.97
2022-12-27T11:32:24.473Z,-7.06
2022-12-27T11:37:48.540Z,-6.96
2022-12-27T11:43:16.075Z,-7.17
2022-12-27T11:48:46.217Z,-7.01
2022-12-27T11:54:34.282Z,-6.99
2022-12-27T12:00:14.350Z,-6.98
2022-12-27T12:05:59.371Z,-7.11
2022-12-27T12:11:36.714Z,-7.07
2022-12-27T12:17:39.398Z,-7.02
2022-12-27T12:23:36.935Z,-6.98
2022-12-27T12:29:26.402Z,-7.12
2022-12-27T12:34:59.614Z,-6.98
2022-12-27T12:40:38.331Z,-7.01
2022-12-27T12:46:32.791Z,-6.98
2022-12-27T12:52:30.898Z,-6.98
2022-12-27T12:58:23.680Z,-6.97
2022-12-27T13:03:55.501Z,-6.98
2022-12-27T13:09:45.393Z,-6.94
2022-12-27T13:15:21.530Z,-6.92
2022-12-27T13:21:14.819Z,-7.09
2022-12-27T13:26:42.713Z,-6.96
2022-12-27T13:32:42.060Z,-6.91
2022-12-27T13:38:23.815Z,-6.95
2022-12-27T13:43:57.110Z,-6.80
2022-12-27T13:49:50.476Z,-6.82
2022-12-27T13:55:22.543Z,-6.86
2022-12-27T14:01:20.115Z,-6.81
2022-12-27T14:06:54.195Z,-6.78
2022-12-27T14:12:34.830Z,-6.76
2022-12-27T14:18:08.983Z,-6.76
2022-12-27T14:24:14.822Z,-6.80
2022-12-27T14:29:54.884Z,-6.76
2022-12-27T14:35:31.391Z,-6.81
2022-12-27T14:41:11.813Z,-6.74
2022-12-27T14:47:15.673Z,-6.75
2022-12-27T14:53:18.048Z,-6.71
2022-12-27T14:58:40.086Z,-6.71
2022-12-27T15:04:23.982Z,-6.72
2022-12-27T15:10:00.395Z,-6.64
2022-12-27T15:15:47.907Z,-6.72
2022-12-27T15:21:39.888Z,-6.62
2022-12-27T15:27:34.961Z,-6.71
2022-12-27T15:33:15.512Z,-6.49
2022-12-27T15:38:54.430Z,-6.46
2022-12-27T15:44:19.631Z,-6.46
2022-12-27T15:50:13.848Z,-6.50
2022-12-27T15:56:00.408Z,-6.43
2022-12-27T16:01:30.125Z,-6.47
2022-12-27T16:06:52.509Z,-6.44
2022-12-27T16:12:37.864Z,-6.45
2022-12-27T16:18:00.100Z,-6.39
2022-12-27T16:23:27.233Z,-6.39
2022-12-27T16:29:02.455Z,-6.34
2022-12-27T16:34:33.174Z,-6.31
2022-12-27T16:40:17.916Z,-6.27
2022-12-27T16:45:51.986Z,-6.29
2022-12-27T16:51:18.332Z,-6.26
2022-12-27T16:56:45.373Z,-6.39
2022-12-27T17:02:39.584Z,-6.27
2022-12-27T17:08:02.009Z,-6.22
2022-12-27T17:13:44.282Z,-6.37
2022-12-27T17:19:15.762Z,-6.29
2022-12-27T17:24:45.933Z,-6.31
2022-12-27T17:30:24.955Z,-6.14
2022-12-27T17:36:27.513Z,-6.16
2022-12-27T17:42:45.995Z,-6.16
2022-12-27T17:48:12.952Z,-6.06
2022-12-27T17:53:53.903Z,-6.22
2022-12-27T17:59:26.324Z,-6.21
2022-12-27T18:04:52.249Z,-6.12
2022-12-27T18:10:21.162Z,-6.04
2022-12-27T18:15:46.367Z,-6.15
2022-12-27T18:21:24.611Z,-6.20
2022-12-27T18:26:47.100Z,-6.13
2022-12-27T18:32:13.375Z,-6.11
2022-12-27T18:37:36.958Z,-6.09
2022-12-27T18:42:58.872Z,-6.01
2022-12-27T18:48:21.031Z,-6.00
2022-12-27T18:53:46.082Z,-6.04
2022-12-27T18:59:17.342Z,-5.95
2022-12-27T19:04:39.412Z,-5.97
2022-12-27T19:10:02.416Z,-5.96
2022-12-27T19:15:36.533Z,-6.00
2022-12-27T19:21:01.963Z,-6.02
2022-12-27T19:26:33.892Z,-6.03
2022-12-27T19:32:03.300Z,-5.98
2022-12-27T19:37:30.960Z,-5.92
2022-12-27T19:42:53.066Z,-5.97
2022-12-27T19:48:14.581Z,-5.91
2022-12-27T19:53:42.632Z,-5.93
2022-12-27T19:59:04.801Z,-6.02
2022-12-27T20:04:26.836Z,-5.86
2022-12-27T20:09:49.353Z,-5.96
2022-12-27T20:15:11.544Z,-5.94
2022-12-27T20:20:33.231Z,-5.86
2022-12-27T20:25:57.103Z,-5.94
2022-12-27T20:31:22.285Z,-5.85
2022-12-27T20:36:45.212Z,-5.90
2022-12-27T20:42:09.550Z,-6.07
2022-12-27T20:47:39.673Z,-6.02
2022-12-27T20:53:01.971Z,-6.09
2022-12-27T20:58:24.382Z,-6.12
2022-12-27T21:03:46.719Z,-6.04
2022-12-27T21:09:09.416Z,-6.00
2022-12-27T21:14:31.746Z,-6.08
2022-12-27T21:19:54.133Z,-6.11
2022-12-27T21:25:19.474Z,-6.09
2022-12-27T21:30:42.126Z,-5.95
2022-12-27T21:36:16.282Z,-5.98
2022-12-27T21:41:40.917Z,-5.87
2022-12-27T21:47:03.114Z,-5.94
2022-12-27T21:52:24.803Z,-5.93
2022-12-27T21:57:47.283Z,-5.96
2022-12-27T22:03:09.796Z,-6.01
2022-12-27T22:08:31.994Z,-6.01
2022-12-27T22:13:54.492Z,-5.95
2022-12-27T22:19:16.649Z,-5.98
2022-12-27T22:24:38.884Z,-5.88
2022-12-27T22:30:01.382Z,-5.85
2022-12-27T22:35:25.279Z,-5.94
2022-12-27T22:40:49.311Z,-5.82
2022-12-27T22:46:13.735Z,-5.93
2022-12-27T22:51:37.565Z,-5.89
2022-12-27T22:57:00.052Z,-5.91
2022-12-27T23:02:22.463Z,-5.96
2022-12-27T23:08:05.781Z,-5.91
2022-12-27T23:13:27.072Z,-5.93
2022-12-27T23:18:49.791Z,-5.91
2022-12-27T23:24:12.443Z,-5.95
2022-12-27T23:29:34.492Z,-6.00
2022-12-27T23:34:56.294Z,-6.04
2022-12-27T23:40:18.732Z,-5.93
2022-12-27T23:45:40.895Z,-5.86
2022-12-27T23:51:03.351Z,-5.83
2022-12-27T23:56:31.224Z,-5.83
